createdAt,value
2016-01-23T18:39:03.479Z,24.53
2016-01-23T18:40:03.342Z,24.55
2016-01-23T18:41:03.425Z,24.53
2016-01-23T18:42:03.475Z,24.51
2016-01-23T18:43:03.462Z,24.53
2016-01-23T18:44:03.685Z,24.45
2016-01-23T18:45:03.284Z,24.58
2016-01-23T18:46:03.241Z,24.55
2016-01-23T18:47:03.152Z,24.58
2016-01-23T18:48:03.202Z,24.55
2016-01-23T18:49:03.188Z,24.6
2016-01-23T18:50:03.317Z,24.54
2016-01-23T18:51:03.570Z,24.57
2016-01-23T18:52:03.120Z,24.5
2016-01-23T18:53:03.013Z,24.45
2016-01-23T18:54:03.047Z,24.43
2016-01-23T18:55:03.926Z,24.42
2016-01-23T18:56:03.148Z,24.4
2016-01-23T18:57:02.889Z,24.39
2016-01-23T18:58:02.923Z,24.38
2016-01-23T18:59:02.895Z,24.35
2016-01-23T19:00:02.929Z,24.39
2016-01-23T19:01:02.932Z,24.43
2016-01-23T19:02:02.860Z,24.38
2016-01-23T19:03:03.036Z,24.4
2016-01-23T19:04:02.774Z,24.3
2016-01-23T19:05:02.979Z,24.3
2016-01-23T19:06:02.763Z,24.42
2016-01-23T19:07:02.673Z,24.39
2016-01-23T19:08:02.801Z,24.18
2016-01-23T19:09:02.679Z,24.24
2016-01-23T19:10:02.714Z,24.38
2016-01-23T19:11:02.685Z,24.33
2016-01-23T19:12:02.828Z,24.26
2016-01-23T19:13:02.645Z,24.35
2016-01-23T19:14:02.649Z,24.32
2016-01-23T19:15:02.576Z,24.35
2016-01-23T19:16:02.642Z,24.36
2016-01-23T19:17:02.520Z,24.38
2016-01-23T19:18:02.476Z,24.39
2016-01-23T19:19:02.432Z,24.4
2016-01-23T19:20:02.483Z,24.39
2016-01-23T19:21:02.313Z,24.4
2016-01-23T19:22:02.316Z,24.42
2016-01-23T19:23:02.522Z,24.48
2016-01-23T19:24:02.338Z,24.48
2016-01-23T19:25:02.435Z,24.43
2016-01-23T19:26:02.314Z,24.51
2016-01-23T19:27:02.304Z,24.5
2016-01-23T19:28:02.290Z,24.42
2016-01-23T19:29:02.199Z,24.4
2016-01-23T19:30:02.330Z,24.36
2016-01-23T19:31:02.131Z,24.32
2016-01-23T19:32:02.133Z,24.39
2016-01-23T19:33:02.108Z,24.38
2016-01-23T19:34:02.017Z,24.4
2016-01-23T19:35:02.084Z,24.47
2016-01-23T19:36:01.918Z,24.4
2016-01-23T19:37:02.033Z,24.43
2016-01-23T19:38:02.113Z,24.47
2016-01-23T19:39:02.225Z,24.53
2016-01-23T19:40:01.883Z,24.54
2016-01-23T19:41:01.857Z,24.48
2016-01-23T19:42:02.000Z,24.51
2016-01-23T19:43:01.895Z,24.57
2016-01-23T19:44:01.931Z,24.54
2016-01-23T19:45:01.840Z,24.51
2016-01-23T19:46:01.807Z,24.51
2016-01-23T19:47:01.747Z,24.57
2016-01-23T19:48:01.768Z,24.58
2016-01-23T19:49:01.661Z,24.57
2016-01-23T19:50:01.773Z,24.66
2016-01-23T19:51:01.885Z,24.53
2016-01-23T19:52:01.903Z,24.58
2016-01-23T19:53:01.627Z,24.53
2016-01-23T19:54:01.522Z,24.6
2016-01-23T19:55:01.588Z,24.68
2016-01-23T19:56:01.606Z,24.66
2016-01-23T19:57:01.452Z,24.65
2016-01-23T19:58:01.519Z,24.66
2016-01-23T19:59:01.444Z,24.68
2016-01-23T20:00:01.542Z,24.7
2016-01-23T20:01:01.466Z,24.66
2016-01-23T20:02:01.390Z,24.65
2016-01-23T20:03:01.347Z,24.63
2016-01-23T20:04:01.321Z,24.7
2016-01-23T20:05:01.278Z,24.63
2016-01-23T20:06:01.295Z,24.76
2016-01-23T20:07:01.408Z,24.7
2016-01-23T20:08:01.194Z,24.65
2016-01-23T20:09:01.183Z,24.63
2016-01-23T20:10:01.139Z,24.74
2016-01-23T20:11:01.127Z,24.63
2016-01-23T20:12:01.099Z,24.65
2016-01-23T20:13:01.320Z,24.7
2016-01-23T20:14:01.074Z,24.69
2016-01-23T20:15:01.095Z,24.69
2016-01-23T20:16:01.034Z,24.7
2016-01-23T20:17:00.995Z,24.78
2016-01-23T20:18:01.029Z,24.63
2016-01-23T20:19:01.064Z,24.76
2016-01-23T20:20:00.831Z,24.78
2016-01-23T20:21:00.915Z,24.73
2016-01-23T20:22:01.156Z,24.66
2016-01-23T20:23:00.909Z,24.68
2016-01-23T20:24:00.848Z,24.73
2016-01-23T20:25:00.867Z,24.76
2016-01-23T20:26:00.700Z,24.66
2016-01-23T20:27:00.705Z,24.73
2016-01-23T20:28:00.707Z,24.7
2016-01-23T20:29:00.710Z,24.74
2016-01-23T20:30:00.666Z,24.69
2016-01-23T20:31:00.655Z,24.7
2016-01-23T20:32:00.690Z,24.85
2016-01-23T20:33:00.553Z,24.81
2016-01-23T20:34:00.571Z,24.86
2016-01-23T20:35:00.683Z,24.86
2016-01-23T20:36:00.530Z,24.86
2016-01-23T20:37:00.595Z,24.84
2016-01-23T20:38:00.553Z,24.84
2016-01-23T20:39:00.464Z,24.89
2016-01-23T20:40:00.435Z,24.89
2016-01-23T20:41:00.454Z,24.92
2016-01-23T20:42:00.456Z,24.92
2016-01-23T20:43:00.414Z,24.95
2016-01-23T20:44:00.402Z,24.92
2016-01-23T20:45:00.311Z,24.86
2016-01-23T20:46:00.222Z,24.85
2016-01-23T20:47:00.275Z,24.92
2016-01-23T20:48:00.218Z,24.91
2016-01-23T20:49:00.267Z,24.86
2016-01-23T20:50:00.554Z,24.85
2016-01-23T20:51:00.151Z,24.89
2016-01-23T20:52:00.154Z,24.85
2016-01-23T20:53:00.109Z,24.85
2016-01-23T20:54:00.206Z,24.89
2016-01-23T20:54:59.990Z,24.92
2016-01-23T20:56:00.010Z,24.98
2016-01-23T20:57:00.200Z,24.84
2016-01-23T20:58:00.082Z,24.84
2016-01-23T20:58:59.974Z,24.86
2016-01-23T20:59:59.932Z,24.88
2016-01-23T21:00:59.966Z,24.91
2016-01-23T21:01:59.844Z,24.86
2016-01-23T21:02:59.879Z,24.86
2016-01-23T21:03:59.991Z,24.88
2016-01-23T21:04:59.916Z,24.91
2016-01-23T21:05:59.812Z,24.89
2016-01-23T21:06:59.863Z,24.85
2016-01-23T21:07:59.757Z,24.88
2016-01-23T21:08:59.822Z,24.84
2016-01-23T21:09:59.778Z,24.95
2016-01-23T21:10:59.859Z,24.85
2016-01-23T21:11:59.691Z,24.84
2016-01-23T21:12:59.710Z,24.85
2016-01-23T21:13:59.682Z,24.93
2016-01-23T21:14:59.592Z,24.95
2016-01-23T21:15:59.532Z,24.92
2016-01-23T21:16:59.565Z,24.96
2016-01-23T21:17:59.591Z,24.98
2016-01-23T21:18:59.563Z,24.96
2016-01-23T21:19:59.460Z,24.92
2016-01-23T21:20:59.588Z,24.99
2016-01-23T21:21:59.466Z,24.98
2016-01-23T21:22:59.515Z,24.85
2016-01-23T21:23:59.378Z,24.8
2016-01-23T21:24:59.368Z,24.81
2016-01-23T21:25:59.198Z,24.84
2016-01-23T21:26:59.341Z,24.84
2016-01-23T21:27:59.313Z,24.84
2016-01-23T21:28:59.316Z,24.85
2016-01-23T21:29:59.304Z,24.84
2016-01-23T21:30:59.198Z,24.8
2016-01-23T21:31:59.514Z,24.86
2016-01-23T21:32:59.031Z,24.86
2016-01-23T21:33:59.175Z,24.89
2016-01-23T21:34:59.087Z,24.88
2016-01-23T21:35:59.078Z,24.81
2016-01-23T21:36:59.036Z,24.91
2016-01-23T21:37:59.133Z,24.78
2016-01-23T21:38:58.964Z,24.88
2016-01-23T21:39:59.032Z,24.81
2016-01-23T21:40:58.941Z,24.84
2016-01-23T21:41:58.881Z,24.88
2016-01-23T21:42:58.899Z,24.84
2016-01-23T21:43:59.030Z,24.85
2016-01-23T21:44:58.769Z,24.86
2016-01-23T21:45:59.008Z,24.8
2016-01-23T21:46:58.902Z,24.86
2016-01-23T21:47:58.796Z,24.81
2016-01-23T21:48:58.808Z,24.81
2016-01-23T21:49:59.186Z,24.86
2016-01-23T21:50:58.862Z,24.86
2016-01-23T21:51:58.805Z,24.86
2016-01-23T21:52:58.603Z,24.86
2016-01-23T21:53:58.686Z,24.86
2016-01-23T21:54:58.548Z,24.89
2016-01-23T21:55:58.598Z,24.84
2016-01-23T21:56:58.618Z,24.86
2016-01-23T21:57:58.588Z,24.91
2016-01-23T21:58:58.467Z,24.89
2016-01-23T21:59:58.394Z,24.86
2016-01-23T22:00:58.491Z,24.91
2016-01-23T22:01:58.478Z,24.92
2016-01-23T22:02:58.544Z,24.86
2016-01-23T22:03:58.393Z,24.81
2016-01-23T22:04:58.396Z,24.84
2016-01-23T22:05:58.306Z,24.89
2016-01-23T22:06:58.323Z,24.84
2016-01-23T22:07:58.217Z,24.91
2016-01-23T22:08:58.223Z,24.88
2016-01-23T22:09:58.522Z,24.84
2016-01-23T22:10:58.510Z,24.84
2016-01-23T22:11:58.188Z,24.86
2016-01-23T22:12:58.143Z,24.86
2016-01-23T22:13:58.177Z,24.89
2016-01-23T22:14:58.073Z,24.86
2016-01-23T22:15:58.061Z,24.74
2016-01-23T22:16:58.063Z,24.77
2016-01-23T22:17:58.098Z,24.81
2016-01-23T22:18:58.133Z,24.85
2016-01-23T22:19:57.993Z,24.74
2016-01-23T22:20:57.888Z,24.69
2016-01-23T22:21:57.860Z,24.73
2016-01-23T22:22:58.020Z,24.77
2016-01-23T22:23:57.851Z,24.74
2016-01-23T22:24:57.933Z,24.66
2016-01-23T22:25:57.890Z,24.78
2016-01-23T22:26:57.910Z,24.7
2016-01-23T22:27:57.790Z,24.66
2016-01-23T22:28:57.745Z,24.73
2016-01-23T22:29:57.810Z,24.77
2016-01-23T22:30:57.751Z,24.8
2016-01-23T22:31:57.661Z,24.76
2016-01-23T22:32:57.743Z,24.74
2016-01-23T22:33:57.699Z,24.66
2016-01-23T22:34:57.736Z,24.66
2016-01-23T22:35:57.629Z,24.63
2016-01-23T22:36:57.602Z,24.65
2016-01-23T22:37:57.589Z,24.65
2016-01-23T22:38:57.484Z,24.65
2016-01-23T22:39:57.505Z,24.63
2016-01-23T22:40:57.648Z,24.65
2016-01-23T22:41:57.448Z,24.63
2016-01-23T22:42:57.514Z,24.65
2016-01-23T22:43:57.471Z,24.57
2016-01-23T22:44:57.506Z,24.57
2016-01-23T22:45:57.477Z,24.65
2016-01-23T22:46:57.293Z,24.6
2016-01-23T22:47:57.265Z,24.65
2016-01-23T22:48:57.346Z,24.6
2016-01-23T22:49:57.241Z,24.58
2016-01-23T22:50:57.198Z,24.65
2016-01-23T22:51:57.249Z,24.57
2016-01-23T22:52:57.142Z,24.61
2016-01-23T22:53:57.270Z,24.57
2016-01-23T22:54:57.072Z,24.6
2016-01-23T22:55:57.107Z,24.55
2016-01-23T22:56:57.047Z,24.6
2016-01-23T22:57:57.097Z,24.58
2016-01-23T22:58:57.006Z,24.65
2016-01-23T22:59:57.058Z,24.61
2016-01-23T23:00:56.937Z,24.61
2016-01-23T23:01:56.971Z,24.6
2016-01-23T23:02:56.992Z,24.69
2016-01-23T23:03:56.900Z,24.66
2016-01-23T23:04:56.904Z,24.63
2016-01-23T23:05:56.891Z,24.76
2016-01-23T23:06:56.801Z,24.68
2016-01-23T23:07:56.774Z,24.63
2016-01-23T23:08:56.776Z,24.65
2016-01-23T23:09:56.812Z,24.61
2016-01-23T23:10:56.702Z,24.61
2016-01-23T23:11:56.753Z,24.66
2016-01-23T23:12:56.694Z,24.7
2016-01-23T23:13:56.650Z,24.76
2016-01-23T23:14:56.685Z,24.73
2016-01-23T23:15:56.609Z,24.61
2016-01-23T23:16:56.582Z,24.76
2016-01-23T23:17:56.680Z,24.69
2016-01-23T23:18:56.577Z,24.73
2016-01-23T23:19:56.548Z,24.7
2016-01-23T23:20:56.660Z,24.65
2016-01-23T23:21:56.464Z,24.66
2016-01-23T23:22:56.564Z,24.74
2016-01-23T23:23:56.411Z,24.65
2016-01-23T23:24:56.414Z,24.69
2016-01-23T23:25:56.450Z,24.63
2016-01-23T23:26:56.375Z,24.65
2016-01-23T23:27:56.221Z,24.63
2016-01-23T23:28:56.302Z,24.58
2016-01-23T23:29:56.337Z,24.65
2016-01-23T23:30:56.248Z,24.69
2016-01-23T23:31:56.378Z,24.65
2016-01-23T23:32:56.458Z,24.65
2016-01-23T23:33:56.164Z,24.68
2016-01-23T23:34:56.089Z,24.69
2016-01-23T23:35:56.108Z,24.69
2016-01-23T23:36:56.188Z,24.73
2016-01-23T23:37:55.849Z,24.73
2016-01-23T23:38:55.992Z,24.61
2016-01-23T23:39:55.949Z,24.66
2016-01-23T23:40:56.061Z,24.61
2016-01-23T23:41:56.067Z,24.63
2016-01-23T23:42:56.135Z,24.65
2016-01-23T23:43:55.997Z,24.57
2016-01-23T23:44:55.828Z,24.55
2016-01-23T23:45:56.252Z,24.5
2016-01-23T23:46:55.818Z,24.5
2016-01-23T23:47:55.774Z,24.48
2016-01-23T23:48:55.809Z,24.55
2016-01-23T23:49:55.719Z,24.5
2016-01-23T23:50:55.659Z,24.4
2016-01-23T23:51:55.631Z,24.47
2016-01-23T23:52:55.696Z,24.45
2016-01-23T23:53:55.671Z,24.45
2016-01-23T23:54:55.628Z,24.45
2016-01-23T23:55:55.647Z,24.39
2016-01-23T23:56:55.617Z,24.33
2016-01-23T23:57:55.574Z,24.38
2016-01-23T23:58:55.609Z,24.32
2016-01-23T23:59:55.534Z,24.4
